TimeCST,TemperatureF,Dew PointF,Humidity,Sea Level PressureIn,VisibilityMPH,Wind Direction,Wind SpeedMPH,Gust SpeedMPH,PrecipitationIn,Events,Conditions,WindDirDegrees,DateUTC
12:15 AM,35.6,35.6,100,30.35,9.0,Calm,Calm,-,0.00,,Clear,0,2013-11-08 06:15:00
12:35 AM,35.6,35.6,100,30.35,10.0,Calm,Calm,-,0.00,,Mostly Cloudy,0,2013-11-08 06:35:00
12:55 AM,35.6,35.6,100,30.35,9.0,Calm,Calm,-,0.00,,Overcast,0,2013-11-08 06:55:00
1:15 AM,35.6,35.6,100,30.35,10.0,Calm,Calm,-,0.00,,Partly Cloudy,0,2013-11-08 07:15:00
1:35 AM,35.6,35.6,100,30.35,10.0,Calm,Calm,-,0.00,,Scattered Clouds,0,2013-11-08 07:35:00
1:55 AM,35.6,35.6,100,30.34,5.0,Calm,Calm,-,0.00,,Overcast,0,2013-11-08 07:55:00
2:15 AM,33.8,33.8,100,30.34,7.0,Calm,Calm,-,0.00,,Mostly Cloudy,0,2013-11-08 08:15:00
2:35 AM,33.8,33.8,100,30.34,5.0,Calm,Calm,-,0.00,,Partly Cloudy,0,2013-11-08 08:35:00
2:55 AM,33.8,33.8,100,30.35,10.0,Calm,Calm,-,0.00,,Scattered Clouds,0,2013-11-08 08:55:00
3:15 AM,33.8,33.8,100,30.35,8.0,Calm,Calm,-,0.00,,Overcast,0,2013-11-08 09:15:00
3:35 AM,33.8,33.8,100,30.35,10.0,Calm,Calm,-,0.00,,Mostly Cloudy,0,2013-11-08 09:35:00
3:55 AM,35.6,35.6,100,30.35,10.0,Calm,Calm,-,0.00,,Clear,0,2013-11-08 09:55:00
4:15 AM,33.8,33.8,100,30.36,10.0,Calm,Calm,-,0.00,,Mostly Cloudy,0,2013-11-08 10:15:00
4:35 AM,33.8,33.8,100,30.36,10.0,Calm,Calm,-,0.00,,Overcast,0,2013-11-08 10:35:00
4:55 AM,33.8,33.8,100,30.36,10.0,Calm,Calm,-,0.00,,Partly Cloudy,0,2013-11-08 10:55:00
5:15 AM,33.8,33.8,100,30.36,10.0,Calm,Calm,-,0.00,,Partly Cloudy,0,2013-11-08 11:15:00
5:35 AM,32.0,32.0,100,30.36,10.0,Calm,Calm,-,0.00,,Mostly Cloudy,0,2013-11-08 11:35:00
6:50 AM,32.0,32.0,100,30.39,10.0,Calm,Calm,-,N/A,,Mostly Cloudy,0,2013-11-08 12:50:00
7:50 AM,35.6,35.6,100,30.39,10.0,Calm,Calm,-,N/A,,Mostly Cloudy,0,2013-11-08 13:50:00
8:50 AM,42.8,42.8,100,30.40,10.0,Calm,Calm,-,N/A,,Mostly Cloudy,0,2013-11-08 14:50:00
9:50 AM,51.8,41.0,67,30.39,10.0,Calm,Calm,-,N/A,,Scattered Clouds,0,2013-11-08 15:50:00
10:50 AM,55.4,39.2,54,30.38,10.0,ESE,5.8,-,N/A,,Scattered Clouds,120,2013-11-08 16:50:00
11:50 AM,57.2,37.4,48,30.35,10.0,SSE,4.6,-,N/A,,Scattered Clouds,160,2013-11-08 17:50:00
12:50 PM,59.0,35.6,42,30.32,10.0,SSE,6.9,-,N/A,,Mostly Cloudy,150,2013-11-08 18:50:00
1:50 PM,60.8,35.6,39,30.29,10.0,SSE,5.8,-,N/A,,Mostly Cloudy,150,2013-11-08 19:50:00
2:50 PM,60.8,35.6,39,30.28,10.0,Calm,Calm,-,N/A,,Scattered Clouds,0,2013-11-08 20:50:00
3:50 PM,60.8,35.6,39,30.26,10.0,South,5.8,-,N/A,,Scattered Clouds,180,2013-11-08 21:50:00
4:50 PM,53.6,37.4,54,30.26,10.0,Calm,Calm,-,N/A,,Scattered Clouds,0,2013-11-08 22:50:00
5:50 PM,50.0,39.2,66,30.26,10.0,Calm,Calm,-,N/A,,Scattered Clouds,0,2013-11-08 23:50:00
6:50 PM,48.2,37.4,66,30.24,10.0,South,5.8,-,N/A,,Scattered Clouds,170,2013-11-09 00:50:00
7:50 PM,46.4,37.4,71,30.25,10.0,Calm,Calm,-,N/A,,Scattered Clouds,0,2013-11-09 01:50:00
7:55 PM,46.4,37.4,71,30.25,10.0,SSE,4.6,-,0.00,,Clear,160,2013-11-09 01:55:00
8:15 PM,46.4,37.4,71,30.25,10.0,South,5.8,-,0.00,,Clear,170,2013-11-09 02:15:00
8:35 PM,46.4,37.4,71,30.24,10.0,SSE,3.5,-,0.00,,Clear,160,2013-11-09 02:35:00
8:55 PM,46.4,37.4,71,30.23,10.0,SSE,6.9,-,0.00,,Clear,160,2013-11-09 02:55:00
9:15 PM,48.2,37.4,66,30.23,10.0,SSE,6.9,-,0.00,,Clear,160,2013-11-09 03:15:00
9:35 PM,46.4,37.4,71,30.23,10.0,SSE,5.8,-,0.00,,Clear,160,2013-11-09 03:35:00
9:55 PM,46.4,37.4,71,30.23,10.0,SSE,5.8,-,0.00,,Clear,160,2013-11-09 03:55:00
10:15 PM,46.4,37.4,71,30.22,9.0,South,4.6,-,0.00,,Clear,170,2013-11-09 04:15:00
10:35 PM,44.6,39.2,81,30.23,9.0,SSE,4.6,-,0.00,,Partly Cloudy,160,2013-11-09 04:35:00
10:55 PM,44.6,39.2,81,30.24,10.0,Calm,Calm,-,0.00,,Scattered Clouds,0,2013-11-09 04:55:00
11:15 PM,42.8,39.2,87,30.23,10.0,Calm,Calm,-,0.00,,Mostly Cloudy,0,2013-11-09 05:15:00
11:35 PM,42.8,39.2,87,30.22,10.0,South,3.5,-,0.00,,Mostly Cloudy,170,2013-11-09 05:35:00
11:55 PM,42.8,39.2,87,30.22,10.0,Calm,Calm,-,0.00,,Overcast,0,2013-11-09 05:55:00